createdAt,value
2022-12-25T00:00:46.386Z,18.90
2022-12-25T00:06:16.126Z,17.50
2022-12-25T00:11:23.396Z,16.50
2022-12-25T00:16:30.543Z,16.50
2022-12-25T00:21:37.768Z,14.40
2022-12-25T00:26:44.833Z,16.20
2022-12-25T00:31:52.003Z,14.10
2022-12-25T00:36:58.960Z,12.90
2022-12-25T00:42:21.394Z,11.20
2022-12-25T00:47:30.565Z,10.60
2022-12-25T00:52:37.620Z,9.70
2022-12-25T00:57:44.588Z,10.80
2022-12-25T01:02:51.712Z,8.10
2022-12-25T01:07:58.882Z,7.60
2022-12-25T01:13:05.767Z,8.20
2022-12-25T01:18:13.067Z,7.50
2022-12-25T01:23:20.426Z,6.20
2022-12-25T01:28:27.373Z,7.30
2022-12-25T01:33:35.750Z,7.80
2022-12-25T01:38:42.999Z,7.30
2022-12-25T01:44:05.771Z,7.00
2022-12-25T01:49:16.335Z,7.80
2022-12-25T01:54:28.388Z,8.90
2022-12-25T01:59:35.833Z,9.50
2022-12-25T02:04:49.447Z,9.20
2022-12-25T02:09:57.053Z,10.40
2022-12-25T02:15:07.038Z,10.10
2022-12-25T02:20:41.443Z,18.90
2022-12-25T02:26:04.623Z,10.10
2022-12-25T02:31:14.934Z,19.40
2022-12-25T02:36:27.943Z,21.10
2022-12-25T02:41:40.606Z,24.10
2022-12-25T02:47:05.906Z,25.90
2022-12-25T02:52:34.323Z,31.40
2022-12-25T02:58:04.425Z,24.40
2022-12-25T03:03:31.860Z,22.90
2022-12-25T03:08:43.541Z,23.80
2022-12-25T03:13:53.349Z,18.00
2022-12-25T03:19:21.330Z,22.00
2022-12-25T03:24:46.137Z,22.00
2022-12-25T03:30:11.021Z,20.10
2022-12-25T03:35:25.648Z,30.70
2022-12-25T03:40:58.128Z,31.20
2022-12-25T03:46:28.681Z,34.90
2022-12-25T03:51:58.569Z,40.20
2022-12-25T03:57:23.596Z,28.20
2022-12-25T04:02:48.297Z,27.20
2022-12-25T04:08:13.276Z,27.40
2022-12-25T04:13:47.033Z,29.00
2022-12-25T04:19:11.543Z,26.60
2022-12-25T04:24:36.448Z,24.60
2022-12-25T04:30:00.921Z,21.50
2022-12-25T04:35:26.757Z,20.90
2022-12-25T04:40:34.186Z,21.90
2022-12-25T04:45:41.116Z,18.60
2022-12-25T04:50:48.203Z,18.60
2022-12-25T04:56:03.526Z,20.30
2022-12-25T05:01:10.940Z,22.20
2022-12-25T05:06:17.979Z,23.40
2022-12-25T05:11:24.790Z,25.50
2022-12-25T05:16:31.836Z,29.70
2022-12-25T05:21:38.930Z,22.60
2022-12-25T05:26:45.921Z,22.10
2022-12-25T05:31:52.830Z,25.70
2022-12-25T05:36:59.972Z,21.60
2022-12-25T05:42:07.064Z,18.20
2022-12-25T05:47:13.991Z,19.30
2022-12-25T05:52:20.837Z,18.60
2022-12-25T05:57:29.155Z,19.40
2022-12-25T06:02:40.354Z,17.50
2022-12-25T06:07:47.581Z,17.30
2022-12-25T06:12:56.650Z,17.50
2022-12-25T06:18:03.992Z,16.60
2022-12-25T06:23:11.402Z,14.40
2022-12-25T06:28:18.414Z,17.10
2022-12-25T06:33:25.303Z,15.00
2022-12-25T06:38:32.702Z,14.90
2022-12-25T06:43:40.267Z,16.90
2022-12-25T06:48:49.603Z,17.40
2022-12-25T06:53:58.120Z,15.30
2022-12-25T06:59:07.015Z,14.00
2022-12-25T07:04:18.219Z,14.10
2022-12-25T07:09:25.147Z,15.30
2022-12-25T07:14:32.328Z,15.20
2022-12-25T07:19:44.696Z,15.20
2022-12-25T07:24:52.509Z,15.10
2022-12-25T07:29:59.387Z,15.50
2022-12-25T07:35:07.310Z,18.80
2022-12-25T07:40:15.183Z,30.70
2022-12-25T07:45:22.338Z,24.20
2022-12-25T07:50:29.277Z,24.30
2022-12-25T07:55:36.351Z,26.00
2022-12-25T08:00:43.297Z,28.10
2022-12-25T08:05:50.510Z,28.50
2022-12-25T08:10:57.501Z,31.90
2022-12-25T08:16:07.952Z,33.10
2022-12-25T08:21:16.005Z,36.80
2022-12-25T08:26:25.067Z,40.50
2022-12-25T08:31:33.461Z,41.80
2022-12-25T08:36:42.977Z,44.60
2022-12-25T08:41:50.258Z,47.90
2022-12-25T08:46:57.189Z,51.60
2022-12-25T08:52:04.075Z,50.40
2022-12-25T08:57:11.087Z,62.00
2022-12-25T09:02:19.790Z,51.80
2022-12-25T09:07:27.657Z,48.80
2022-12-25T09:12:37.927Z,46.30
2022-12-25T09:17:44.935Z,45.60
2022-12-25T09:22:52.099Z,43.90
2022-12-25T09:27:59.874Z,49.70
2022-12-25T09:33:07.251Z,56.80
2022-12-25T09:38:14.183Z,47.40
2022-12-25T09:43:24.635Z,46.30
2022-12-25T09:48:34.899Z,45.50
2022-12-25T09:53:46.358Z,46.70
2022-12-25T09:58:54.839Z,40.30
2022-12-25T10:04:40.614Z,37.60
2022-12-25T10:10:00.909Z,37.20
2022-12-25T10:15:31.102Z,37.50
2022-12-25T10:20:47.047Z,36.00
2022-12-25T10:25:55.274Z,33.40
2022-12-25T10:31:16.905Z,31.60
2022-12-25T10:36:26.998Z,37.50
2022-12-25T10:41:54.529Z,35.30
2022-12-25T10:47:03.213Z,32.60
2022-12-25T10:52:23.406Z,32.70
2022-12-25T10:57:30.538Z,31.00
2022-12-25T11:02:41.820Z,31.40
2022-12-25T11:07:55.123Z,30.40
2022-12-25T11:13:06.303Z,29.10
2022-12-25T11:18:25.592Z,24.50
2022-12-25T11:23:35.067Z,23.10
2022-12-25T11:28:45.965Z,18.70
2022-12-25T11:34:00.297Z,34.50
2022-12-25T11:39:21.749Z,18.70
2022-12-25T11:44:43.639Z,22.30
2022-12-25T11:55:17.285Z,27.80
2022-12-25T12:00:26.635Z,22.80
2022-12-25T12:05:40.201Z,27.30
2022-12-25T12:11:16.095Z,70.90
2022-12-25T12:16:24.013Z,18.20
2022-12-25T12:21:32.819Z,14.10
2022-12-25T12:26:42.641Z,13.10
2022-12-25T12:37:06.132Z,27.50
2022-12-25T12:42:20.157Z,19.10
2022-12-25T12:53:27.959Z,36.00
2022-12-25T12:58:45.329Z,29.60
2022-12-25T13:04:17.241Z,66.80
2022-12-25T13:09:36.681Z,47.00
2022-12-25T13:14:50.386Z,26.50
2022-12-25T13:20:02.403Z,16.20
2022-12-25T13:25:22.474Z,15.70
2022-12-25T13:30:34.164Z,19.80
2022-12-25T13:41:16.693Z,47.60
2022-12-25T13:46:28.576Z,29.40
2022-12-25T13:51:35.868Z,34.50
2022-12-25T13:56:53.480Z,47.20
2022-12-25T14:02:04.282Z,27.50
2022-12-25T14:07:13.665Z,23.20
2022-12-25T14:12:21.417Z,51.20
2022-12-25T14:17:29.491Z,54.40
2022-12-25T14:22:38.690Z,38.50
2022-12-25T14:27:51.757Z,24.20
2022-12-25T14:32:59.954Z,18.00
2022-12-25T14:38:11.654Z,65.40
2022-12-25T14:43:26.952Z,45.50
2022-12-25T14:48:34.880Z,28.10
2022-12-25T14:53:51.364Z,26.30
2022-12-25T14:59:00.134Z,24.30
2022-12-25T15:04:14.390Z,24.00
2022-12-25T15:09:21.367Z,17.30
2022-12-25T15:14:32.182Z,16.40
2022-12-25T15:19:46.074Z,19.60
2022-12-25T15:25:00.372Z,19.00
2022-12-25T15:30:11.407Z,21.80
2022-12-25T15:35:22.294Z,21.20
2022-12-25T15:40:30.403Z,22.80
2022-12-25T15:45:38.393Z,21.60
2022-12-25T15:50:46.932Z,20.80
2022-12-25T15:55:54.229Z,19.40
2022-12-25T16:01:01.473Z,18.20
2022-12-25T16:06:11.097Z,24.70
2022-12-25T16:11:18.066Z,24.70
2022-12-25T16:16:25.899Z,26.10
2022-12-25T16:21:42.257Z,28.30
2022-12-25T16:26:49.484Z,25.90
2022-12-25T16:31:56.928Z,25.60
2022-12-25T16:37:04.465Z,23.70
2022-12-25T16:42:12.527Z,23.40
2022-12-25T16:47:24.004Z,22.80
2022-12-25T16:52:31.730Z,23.20
2022-12-25T16:57:40.905Z,22.70
2022-12-25T17:02:51.585Z,24.40
2022-12-25T17:08:04.105Z,27.40
2022-12-25T17:13:13.485Z,28.10
2022-12-25T17:18:22.539Z,26.00
2022-12-25T17:23:32.210Z,26.40
2022-12-25T17:28:42.373Z,29.40
2022-12-25T17:33:50.095Z,28.00
2022-12-25T17:39:04.609Z,28.70
2022-12-25T17:44:15.145Z,27.60
2022-12-25T17:49:23.614Z,30.90
2022-12-25T17:54:30.804Z,28.90
2022-12-25T17:59:37.795Z,31.60
2022-12-25T18:04:45.080Z,32.80
2022-12-25T18:09:51.954Z,33.30
2022-12-25T18:14:58.976Z,34.60
2022-12-25T18:20:07.137Z,33.10
2022-12-25T18:25:14.148Z,34.50
2022-12-25T18:30:21.518Z,41.00
2022-12-25T18:35:29.977Z,37.00
2022-12-25T18:40:40.685Z,43.30
2022-12-25T18:45:47.584Z,38.20
2022-12-25T18:50:59.516Z,37.50
2022-12-25T18:56:10.748Z,35.60
2022-12-25T19:01:19.486Z,35.80
2022-12-25T19:06:29.787Z,38.80
2022-12-25T19:11:42.062Z,38.70
2022-12-25T19:16:52.284Z,39.60
2022-12-25T19:22:00.034Z,45.50
2022-12-25T19:27:07.454Z,38.70
2022-12-25T19:32:14.419Z,37.20
2022-12-25T19:37:21.408Z,35.00
2022-12-25T19:42:28.330Z,35.10
2022-12-25T19:47:35.333Z,31.50
2022-12-25T19:52:42.161Z,32.30
2022-12-25T19:57:49.010Z,32.60
2022-12-25T20:02:56.003Z,38.50
2022-12-25T20:08:04.418Z,32.70
2022-12-25T20:13:11.350Z,34.70
2022-12-25T20:18:18.481Z,31.90
2022-12-25T20:23:25.783Z,29.40
2022-12-25T20:28:34.554Z,29.20
2022-12-25T20:33:42.178Z,27.70
2022-12-25T20:38:49.275Z,29.10
2022-12-25T20:43:56.465Z,27.30
2022-12-25T20:49:03.802Z,28.20
2022-12-25T20:54:12.782Z,30.40
2022-12-25T20:59:19.751Z,27.80
2022-12-25T21:04:29.233Z,28.10
2022-12-25T21:09:36.730Z,30.40
2022-12-25T21:14:43.700Z,33.30
2022-12-25T21:19:50.763Z,25.10
2022-12-25T21:24:57.731Z,24.80
2022-12-25T21:30:14.257Z,25.30
2022-12-25T21:35:22.946Z,24.00
2022-12-25T21:40:30.343Z,25.10
2022-12-25T21:45:37.595Z,23.40
2022-12-25T21:51:02.397Z,22.40
2022-12-25T21:56:09.977Z,22.10
2022-12-25T22:01:17.543Z,24.40
2022-12-25T22:06:43.946Z,21.20
2022-12-25T22:12:08.633Z,21.20
2022-12-25T22:17:33.541Z,22.40
2022-12-25T22:22:40.602Z,22.60
2022-12-25T22:27:48.763Z,24.60
2022-12-25T22:32:56.431Z,23.80
2022-12-25T22:38:03.306Z,22.20
2022-12-25T22:43:10.246Z,23.00
2022-12-25T22:48:17.360Z,23.60
2022-12-25T22:53:24.414Z,21.00
2022-12-25T22:58:32.582Z,22.70
2022-12-25T23:03:40.094Z,21.40
2022-12-25T23:08:52.909Z,23.70
2022-12-25T23:14:18.156Z,22.20
2022-12-25T23:19:43.464Z,22.00
2022-12-25T23:25:09.795Z,24.60
2022-12-25T23:30:22.882Z,23.60
2022-12-25T23:35:30.201Z,23.50
2022-12-25T23:40:37.623Z,23.90
2022-12-25T23:45:44.885Z,23.60
2022-12-25T23:50:52.169Z,23.90
2022-12-25T23:55:59.955Z,22.80
